createdAt,value
2018-10-07T00:01:13.224Z,93.60
2018-10-07T00:03:41.450Z,93.90
2018-10-07T00:06:09.726Z,94.20
2018-10-07T00:08:39.370Z,94.50
2018-10-07T00:11:07.640Z,94.80
2018-10-07T00:13:35.977Z,94.90
2018-10-07T00:16:04.537Z,95.20
2018-10-07T00:18:32.774Z,95.40
2018-10-07T00:21:01.043Z,95.60
2018-10-07T00:23:29.273Z,95.70
2018-10-07T00:25:57.554Z,95.80
2018-10-07T00:28:25.762Z,95.90
2018-10-07T00:30:54.065Z,95.90
2018-10-07T00:33:22.384Z,95.80
2018-10-07T00:35:50.706Z,95.70
2018-10-07T00:38:18.994Z,95.70
2018-10-07T00:40:47.267Z,95.80
2018-10-07T00:43:15.569Z,95.80
2018-10-07T00:45:44.838Z,95.90
2018-10-07T00:48:13.223Z,95.90
2018-10-07T00:50:41.529Z,96.10
2018-10-07T00:53:09.792Z,96.10
2018-10-07T00:55:38.084Z,96.10
2018-10-07T00:58:06.334Z,96.00
2018-10-07T01:00:35.047Z,96.00
2018-10-07T01:03:03.301Z,96.20
2018-10-07T01:05:31.541Z,96.70
2018-10-07T01:07:59.843Z,97.30
2018-10-07T01:10:28.114Z,97.60
2018-10-07T01:12:56.349Z,98.50
2018-10-07T01:15:24.586Z,98.90
2018-10-07T01:17:52.817Z,99.80
2018-10-07T01:20:21.119Z,99.80
2018-10-07T01:22:49.526Z,99.90
2018-10-07T01:25:17.886Z,99.90
2018-10-07T01:27:46.175Z,99.90
2018-10-07T01:30:14.432Z,99.90
2018-10-07T01:32:42.709Z,99.90
2018-10-07T01:35:11.051Z,99.90
2018-10-07T01:37:39.282Z,99.90
2018-10-07T01:40:07.574Z,99.90
2018-10-07T01:42:35.828Z,99.90
2018-10-07T01:45:04.104Z,99.90
2018-10-07T01:47:32.374Z,99.90
2018-10-07T01:50:00.612Z,99.90
2018-10-07T01:52:28.819Z,99.90
2018-10-07T01:54:57.095Z,99.90
2018-10-07T01:57:25.362Z,99.90
2018-10-07T01:59:53.593Z,99.90
2018-10-07T02:02:21.838Z,99.90
2018-10-07T02:04:50.140Z,99.90
2018-10-07T02:07:18.395Z,99.90
2018-10-07T02:09:46.655Z,99.90
2018-10-07T02:12:14.870Z,99.90
2018-10-07T02:14:43.111Z,99.90
2018-10-07T02:17:12.348Z,99.90
2018-10-07T02:19:40.565Z,99.90
2018-10-07T02:22:08.821Z,99.90
2018-10-07T02:24:37.162Z,99.90
2018-10-07T02:27:05.415Z,99.90
2018-10-07T02:29:33.677Z,99.90
2018-10-07T02:32:01.930Z,99.90
2018-10-07T02:34:30.174Z,99.90
2018-10-07T02:36:58.402Z,99.90
2018-10-07T02:39:26.680Z,99.90
2018-10-07T02:41:54.891Z,99.90
2018-10-07T02:44:23.130Z,99.90
2018-10-07T02:46:51.350Z,99.90
2018-10-07T02:49:19.678Z,99.90
2018-10-07T02:51:48.082Z,99.90
2018-10-07T02:54:16.364Z,99.90
2018-10-07T02:56:44.695Z,99.90
2018-10-07T02:59:14.419Z,99.90
2018-10-07T03:01:42.863Z,99.90
2018-10-07T03:04:11.192Z,99.90
2018-10-07T03:06:39.403Z,99.90
2018-10-07T03:09:08.757Z,99.90
2018-10-07T03:11:36.988Z,99.90
2018-10-07T03:14:05.238Z,99.90
2018-10-07T03:16:33.518Z,99.90
2018-10-07T03:19:01.780Z,99.90
2018-10-07T03:21:30.158Z,99.90
2018-10-07T03:23:58.393Z,99.90
2018-10-07T03:26:26.634Z,99.90
2018-10-07T03:28:54.895Z,99.90
2018-10-07T03:31:23.169Z,99.90
2018-10-07T03:33:51.442Z,99.90
2018-10-07T03:36:19.678Z,99.90
2018-10-07T03:38:47.918Z,99.90
2018-10-07T03:41:16.194Z,99.90
2018-10-07T03:43:44.431Z,99.90
2018-10-07T03:46:12.732Z,99.90
2018-10-07T03:48:40.973Z,99.90
2018-10-07T03:51:09.199Z,99.90
2018-10-07T03:53:37.455Z,99.90
2018-10-07T03:56:05.810Z,99.90
2018-10-07T03:58:34.056Z,99.90
2018-10-07T04:01:02.334Z,99.90
2018-10-07T04:03:30.621Z,99.90
2018-10-07T04:05:58.852Z,99.90
2018-10-07T04:08:27.092Z,99.90
2018-10-07T04:10:55.359Z,99.90
2018-10-07T04:13:23.635Z,99.90
2018-10-07T04:15:51.986Z,99.90
2018-10-07T04:18:20.241Z,99.90
2018-10-07T04:20:55.274Z,99.90
2018-10-07T04:23:23.518Z,99.90
2018-10-07T04:25:51.803Z,99.90
2018-10-07T04:28:20.046Z,99.90
2018-10-07T04:30:48.299Z,99.90
2018-10-07T04:33:16.553Z,99.90
2018-10-07T04:35:44.809Z,99.90
2018-10-07T04:38:13.227Z,99.90
2018-10-07T04:40:41.479Z,99.90
2018-10-07T04:43:09.694Z,99.90
2018-10-07T04:45:38.047Z,99.90
2018-10-07T04:48:06.414Z,99.90
2018-10-07T04:50:34.707Z,99.90
2018-10-07T04:53:02.978Z,99.90
2018-10-07T04:55:31.298Z,99.90
2018-10-07T04:57:59.673Z,99.90
2018-10-07T05:00:27.959Z,99.90
2018-10-07T05:02:56.199Z,99.90
2018-10-07T05:05:24.799Z,99.90
2018-10-07T05:07:53.108Z,99.90
2018-10-07T05:10:45.478Z,99.90
2018-10-07T05:13:15.536Z,99.90
2018-10-07T05:15:44.237Z,99.90
2018-10-07T05:18:12.549Z,99.90
2018-10-07T05:20:41.085Z,99.90
2018-10-07T05:23:09.370Z,99.90
2018-10-07T05:25:37.628Z,99.90
2018-10-07T05:28:05.886Z,99.90
2018-10-07T05:30:34.159Z,99.90
2018-10-07T05:33:02.804Z,99.90
2018-10-07T05:35:31.029Z,99.90
2018-10-07T05:37:59.307Z,99.90
2018-10-07T05:40:27.572Z,99.90
2018-10-07T05:42:55.854Z,99.90
2018-10-07T05:45:24.149Z,99.90
2018-10-07T05:47:52.516Z,99.90
2018-10-07T05:50:20.733Z,99.90
2018-10-07T05:52:48.992Z,99.90
2018-10-07T05:55:17.234Z,99.90
2018-10-07T05:57:45.782Z,99.90
2018-10-07T06:00:15.641Z,99.90
2018-10-07T06:02:45.881Z,99.90
2018-10-07T06:05:14.615Z,99.90
2018-10-07T06:07:43.100Z,99.90
2018-10-07T06:10:11.440Z,99.90
2018-10-07T06:12:39.817Z,99.90
2018-10-07T06:15:23.526Z,99.90
2018-10-07T06:17:51.855Z,99.90
2018-10-07T06:20:20.167Z,99.90
2018-10-07T06:22:48.407Z,99.90
2018-10-07T06:25:16.710Z,99.90
2018-10-07T06:27:44.980Z,99.90
2018-10-07T06:30:13.308Z,99.90
2018-10-07T06:32:41.539Z,99.90
2018-10-07T06:35:09.887Z,99.90
2018-10-07T06:37:41.174Z,99.90
2018-10-07T06:40:09.407Z,99.90
2018-10-07T06:42:37.670Z,99.90
2018-10-07T06:45:05.952Z,99.90
2018-10-07T06:47:34.158Z,99.90
2018-10-07T06:50:03.522Z,99.90
2018-10-07T06:52:31.830Z,99.90
2018-10-07T06:55:00.315Z,99.90
2018-10-07T06:57:29.958Z,99.90
2018-10-07T06:59:58.363Z,99.90
2018-10-07T07:02:26.641Z,99.90
2018-10-07T07:04:55.198Z,99.90
2018-10-07T07:07:23.781Z,99.90
2018-10-07T07:09:52.208Z,99.90
2018-10-07T07:12:20.425Z,99.90
2018-10-07T07:14:48.642Z,99.90
2018-10-07T07:17:16.896Z,99.90
2018-10-07T07:19:45.768Z,99.90
2018-10-07T07:22:13.983Z,99.90
2018-10-07T07:24:42.239Z,99.90
2018-10-07T07:27:10.495Z,99.90
2018-10-07T07:29:39.569Z,99.90
2018-10-07T07:32:07.862Z,99.90
2018-10-07T07:34:36.121Z,99.90
2018-10-07T07:37:05.136Z,99.90
2018-10-07T07:39:33.363Z,99.90
2018-10-07T07:42:01.707Z,99.90
2018-10-07T07:44:29.952Z,99.90
2018-10-07T07:46:58.172Z,99.90
2018-10-07T07:49:26.382Z,99.90
2018-10-07T07:51:54.594Z,99.90
2018-10-07T07:54:22.887Z,99.50
2018-10-07T07:56:51.136Z,99.40
2018-10-07T07:59:19.463Z,98.90
2018-10-07T08:01:47.778Z,98.80
2018-10-07T08:04:16.137Z,98.70
2018-10-07T08:06:44.434Z,98.90
2018-10-07T08:09:12.673Z,98.70
2018-10-07T08:11:41.128Z,98.60
2018-10-07T08:14:09.351Z,98.50
2018-10-07T08:16:37.760Z,98.60
2018-10-07T08:19:06.026Z,98.20
2018-10-07T08:21:35.167Z,97.80
2018-10-07T08:24:03.392Z,98.30
2018-10-07T08:26:31.619Z,98.20
2018-10-07T08:28:59.866Z,98.50
2018-10-07T08:31:28.186Z,98.50
2018-10-07T08:33:56.400Z,98.40
2018-10-07T08:36:24.690Z,98.00
2018-10-07T08:38:52.946Z,97.90
2018-10-07T08:41:21.179Z,97.70
2018-10-07T08:43:50.238Z,97.40
2018-10-07T08:46:18.496Z,97.00
2018-10-07T08:48:46.779Z,97.50
2018-10-07T08:51:15.068Z,97.20
2018-10-07T08:53:43.334Z,97.00
2018-10-07T08:56:11.736Z,96.40
2018-10-07T08:58:39.942Z,96.40
2018-10-07T09:01:08.163Z,95.90
2018-10-07T09:03:36.414Z,95.90
2018-10-07T09:06:04.757Z,95.10
2018-10-07T09:08:33.576Z,95.00
2018-10-07T09:11:01.775Z,94.30
2018-10-07T09:13:30.001Z,93.10
2018-10-07T09:15:58.223Z,93.20
2018-10-07T09:18:26.462Z,93.10
2018-10-07T09:20:54.755Z,92.40
2018-10-07T09:23:23.235Z,92.40
2018-10-07T09:25:51.632Z,91.70
2018-10-07T09:28:19.914Z,91.10
2018-10-07T09:30:48.130Z,91.20
2018-10-07T09:33:16.311Z,90.80
2018-10-07T09:35:44.498Z,91.20
2018-10-07T09:38:12.839Z,90.70
2018-10-07T09:40:41.087Z,90.60
2018-10-07T09:43:09.317Z,90.90
2018-10-07T09:45:37.566Z,90.40
2018-10-07T09:48:05.925Z,90.40
2018-10-07T09:50:34.172Z,89.60
2018-10-07T09:53:02.369Z,89.40
2018-10-07T09:55:31.002Z,89.00
2018-10-07T09:57:59.288Z,87.40
2018-10-07T10:00:42.113Z,87.20
2018-10-07T10:03:11.561Z,87.10
2018-10-07T10:05:39.877Z,87.30
2018-10-07T10:08:08.623Z,87.10
2018-10-07T10:10:36.857Z,87.60
2018-10-07T10:13:05.272Z,87.30
2018-10-07T10:15:33.469Z,86.40
2018-10-07T10:18:03.154Z,84.80
2018-10-07T10:21:38.436Z,85.30
2018-10-07T10:24:20.330Z,84.40
2018-10-07T10:27:05.501Z,84.70
2018-10-07T10:29:37.798Z,84.30
2018-10-07T10:32:11.483Z,83.40
2018-10-07T10:34:48.457Z,83.90
2018-10-07T10:44:54.161Z,84.50
2018-10-07T10:47:30.155Z,83.30
2018-10-07T10:50:11.520Z,83.40
2018-10-07T10:53:46.987Z,83.90
2018-10-07T10:56:30.894Z,84.30
2018-10-07T11:01:15.443Z,83.30
2018-10-07T11:03:50.632Z,83.10
2018-10-07T11:06:25.341Z,82.80
2018-10-07T11:10:04.355Z,83.30
2018-10-07T11:12:43.434Z,82.50
2018-10-07T11:15:34.317Z,82.40
2018-10-07T11:18:26.271Z,81.10
2018-10-07T11:21:10.456Z,81.40
2018-10-07T11:24:14.844Z,81.60
2018-10-07T11:26:51.543Z,81.50
2018-10-07T11:29:31.178Z,80.00
2018-10-07T11:34:13.708Z,79.20
2018-10-07T11:37:24.951Z,79.50
2018-10-07T11:41:04.835Z,79.50
2018-10-07T11:43:40.048Z,79.00
2018-10-07T11:46:13.610Z,77.80
2018-10-07T11:48:47.950Z,77.80
2018-10-07T11:52:36.401Z,77.90
2018-10-07T11:55:05.084Z,77.60
2018-10-07T11:57:33.403Z,77.70
2018-10-07T12:00:02.033Z,78.40
2018-10-07T12:02:30.371Z,77.70
2018-10-07T12:04:59.283Z,77.20
2018-10-07T12:07:30.479Z,76.60
2018-10-07T12:09:58.703Z,76.00
2018-10-07T12:12:27.397Z,75.20
2018-10-07T12:14:55.717Z,73.60
2018-10-07T12:17:24.010Z,73.80
2018-10-07T12:19:52.254Z,73.10
2018-10-07T12:22:20.538Z,72.50
2018-10-07T12:24:49.244Z,72.00
2018-10-07T12:27:17.545Z,71.90
2018-10-07T12:29:45.780Z,71.30
2018-10-07T12:32:13.985Z,72.20
2018-10-07T12:34:42.243Z,71.00
2018-10-07T12:37:10.481Z,70.70
2018-10-07T12:39:39.499Z,70.20
2018-10-07T12:42:16.283Z,69.60
2018-10-07T12:44:44.593Z,69.90
2018-10-07T12:47:18.223Z,70.10
2018-10-07T12:49:46.664Z,70.30
2018-10-07T12:52:15.702Z,70.30
2018-10-07T12:54:44.025Z,70.10
2018-10-07T12:57:12.494Z,69.70
2018-10-07T12:59:41.032Z,69.30
2018-10-07T13:02:09.657Z,69.50
2018-10-07T13:04:37.926Z,69.40
2018-10-07T13:07:06.280Z,68.90
2018-10-07T13:09:34.946Z,69.00
2018-10-07T13:12:03.122Z,69.50
2018-10-07T13:14:31.511Z,70.00
2018-10-07T13:16:59.802Z,70.30
2018-10-07T13:19:28.081Z,70.20
2018-10-07T13:21:56.380Z,69.70
2018-10-07T13:24:25.021Z,69.10
2018-10-07T13:26:53.380Z,68.60
2018-10-07T13:29:21.710Z,68.30
2018-10-07T13:31:49.959Z,68.00
2018-10-07T13:34:18.442Z,67.70
2018-10-07T13:36:47.421Z,67.60
2018-10-07T13:39:15.642Z,67.20
2018-10-07T13:41:43.874Z,66.50
2018-10-07T13:44:12.253Z,67.40
2018-10-07T13:46:40.723Z,67.60
2018-10-07T13:49:09.050Z,67.80
2018-10-07T13:51:37.542Z,67.60
2018-10-07T13:54:06.079Z,67.40
2018-10-07T13:56:41.107Z,67.10
2018-10-07T13:59:09.449Z,67.00
2018-10-07T14:01:39.006Z,67.20
2018-10-07T14:04:07.697Z,67.20
2018-10-07T14:06:36.014Z,67.20
2018-10-07T14:09:05.926Z,67.50
2018-10-07T14:11:34.178Z,66.60
2018-10-07T14:14:02.682Z,67.10
2018-10-07T14:16:31.700Z,67.20
2018-10-07T14:19:00.354Z,67.00
2018-10-07T14:21:28.649Z,67.10
2018-10-07T14:23:57.032Z,67.80
2018-10-07T14:26:25.280Z,68.70
2018-10-07T14:28:53.544Z,68.30
2018-10-07T14:31:22.112Z,68.00
2018-10-07T14:33:51.395Z,67.60
2018-10-07T14:36:19.744Z,68.20
2018-10-07T14:38:48.083Z,67.30
2018-10-07T14:41:16.527Z,67.10
2018-10-07T14:43:45.308Z,66.60
2018-10-07T14:46:13.815Z,66.70
2018-10-07T14:48:42.404Z,66.80
2018-10-07T14:51:10.682Z,66.60
2018-10-07T14:53:38.989Z,66.60
2018-10-07T14:56:07.298Z,66.40
2018-10-07T14:58:35.952Z,65.90
2018-10-07T15:01:04.489Z,66.20
2018-10-07T15:03:32.811Z,66.40
2018-10-07T15:06:01.312Z,66.10
2018-10-07T15:08:29.564Z,66.20
2018-10-07T15:10:57.800Z,66.50
2018-10-07T15:13:26.134Z,66.60
2018-10-07T15:15:54.414Z,66.30
2018-10-07T15:18:22.787Z,66.40
2018-10-07T15:20:51.274Z,66.60
2018-10-07T15:23:19.520Z,66.80
2018-10-07T15:28:29.449Z,67.10
2018-10-07T15:30:57.818Z,66.60
2018-10-07T15:33:26.153Z,67.00
2018-10-07T15:35:54.525Z,67.40
2018-10-07T15:38:22.730Z,67.70
2018-10-07T15:40:51.016Z,67.10
2018-10-07T15:43:19.359Z,67.30
2018-10-07T15:45:48.290Z,67.40
2018-10-07T15:48:16.566Z,67.50
2018-10-07T15:50:44.873Z,67.20
2018-10-07T15:53:13.138Z,67.30
2018-10-07T15:55:42.331Z,67.30
2018-10-07T15:58:10.613Z,66.90
2018-10-07T16:00:38.878Z,66.70
2018-10-07T16:03:07.538Z,66.70
2018-10-07T16:05:35.813Z,66.30
2018-10-07T16:08:04.503Z,65.90
2018-10-07T16:10:32.714Z,65.50
2018-10-07T16:13:01.023Z,65.30
2018-10-07T16:15:29.374Z,65.20
2018-10-07T16:17:57.642Z,65.40
2018-10-07T16:20:26.763Z,65.40
2018-10-07T16:22:55.326Z,65.60
2018-10-07T16:25:23.683Z,65.10
2018-10-07T16:27:52.170Z,65.50
2018-10-07T16:30:20.421Z,65.60
2018-10-07T16:32:48.757Z,65.80
2018-10-07T16:35:18.343Z,65.90
2018-10-07T16:37:46.754Z,66.10
2018-10-07T16:40:15.412Z,66.10
2018-10-07T16:42:43.709Z,66.60
2018-10-07T16:45:12.103Z,66.00
2018-10-07T16:47:40.450Z,66.50
2018-10-07T16:50:08.696Z,66.80
2018-10-07T16:52:37.063Z,67.30
2018-10-07T16:55:06.862Z,67.40
2018-10-07T16:57:35.087Z,67.60
2018-10-07T17:00:03.383Z,67.30
2018-10-07T17:02:31.622Z,67.40
2018-10-07T17:05:00.612Z,67.70
2018-10-07T17:07:28.878Z,67.80
2018-10-07T17:09:57.217Z,68.00
2018-10-07T17:12:25.765Z,68.20
2018-10-07T17:14:54.082Z,68.70
2018-10-07T17:17:23.694Z,69.20
2018-10-07T17:19:51.965Z,69.70
2018-10-07T17:22:20.210Z,70.00
2018-10-07T17:24:49.431Z,70.50
2018-10-07T17:27:17.831Z,70.40
2018-10-07T17:29:46.106Z,70.50
2018-10-07T17:32:14.390Z,70.80
2018-10-07T17:34:42.602Z,70.70
2018-10-07T17:37:10.852Z,70.60
2018-10-07T17:39:39.094Z,70.60
2018-10-07T17:42:07.589Z,70.10
2018-10-07T17:44:35.952Z,70.40
2018-10-07T17:47:04.218Z,70.90
2018-10-07T17:49:32.491Z,71.10
2018-10-07T17:52:01.132Z,71.00
2018-10-07T17:54:29.583Z,70.60
2018-10-07T17:56:57.883Z,70.00
2018-10-07T17:59:26.440Z,70.00
2018-10-07T18:01:54.647Z,70.10
2018-10-07T18:04:22.876Z,69.80
2018-10-07T18:06:51.167Z,69.80
2018-10-07T18:09:19.566Z,69.90
2018-10-07T18:11:48.414Z,69.90
2018-10-07T18:14:16.872Z,70.00
2018-10-07T18:16:45.520Z,69.90
2018-10-07T18:19:13.782Z,70.10
2018-10-07T18:21:42.035Z,70.20
2018-10-07T18:24:10.273Z,70.00
2018-10-07T18:26:38.608Z,70.10
2018-10-07T18:29:06.928Z,70.20
2018-10-07T18:34:14.531Z,70.30
2018-10-07T18:36:42.674Z,70.50
2018-10-07T18:39:10.947Z,70.40
2018-10-07T18:41:39.828Z,70.50
2018-10-07T18:44:08.273Z,70.70
2018-10-07T18:46:37.212Z,70.60
2018-10-07T18:49:05.720Z,70.70
2018-10-07T18:51:34.353Z,70.60
2018-10-07T18:54:03.290Z,70.60
2018-10-07T18:56:32.596Z,70.80
2018-10-07T18:59:01.096Z,70.70
2018-10-07T19:01:30.327Z,70.90
2018-10-07T19:03:59.426Z,71.00
2018-10-07T19:06:28.438Z,71.00
2018-10-07T19:08:57.015Z,70.80
2018-10-07T19:11:25.851Z,71.10
2018-10-07T19:13:54.140Z,71.50
2018-10-07T19:16:22.598Z,71.50
2018-10-07T19:18:50.902Z,71.70
2018-10-07T19:21:19.231Z,71.90
2018-10-07T19:23:47.483Z,72.20
2018-10-07T19:26:15.702Z,73.10
2018-10-07T19:28:44.092Z,72.90
2018-10-07T19:31:13.052Z,73.20
2018-10-07T19:33:43.476Z,73.50
2018-10-07T19:36:11.875Z,73.90
2018-10-07T19:38:40.227Z,74.30
2018-10-07T19:41:09.047Z,74.80
2018-10-07T19:43:37.354Z,75.10
2018-10-07T19:46:05.668Z,75.00
2018-10-07T19:48:34.794Z,75.40
2018-10-07T19:51:03.082Z,75.50
2018-10-07T19:53:31.441Z,76.00
2018-10-07T19:55:59.836Z,76.30
2018-10-07T19:58:28.119Z,76.30
2018-10-07T20:00:56.594Z,77.40
2018-10-07T20:03:24.979Z,77.20
2018-10-07T20:05:53.279Z,77.40
2018-10-07T20:08:21.686Z,77.60
2018-10-07T20:10:51.738Z,76.70
2018-10-07T20:13:20.391Z,76.70
2018-10-07T20:15:49.009Z,76.90
2018-10-07T20:18:18.327Z,76.10
2018-10-07T20:20:47.065Z,76.50
2018-10-07T20:23:16.792Z,76.40
2018-10-07T20:25:47.134Z,77.00
2018-10-07T20:28:15.531Z,76.20
2018-10-07T20:30:43.990Z,76.90
2018-10-07T20:33:12.877Z,76.30
2018-10-07T20:35:41.289Z,76.70
2018-10-07T20:38:10.803Z,77.10
2018-10-07T20:40:39.257Z,77.70
2018-10-07T20:43:07.426Z,78.60
2018-10-07T20:45:35.731Z,78.60
2018-10-07T20:48:05.267Z,77.80
2018-10-07T20:50:33.594Z,77.60
2018-10-07T20:53:01.915Z,78.50
2018-10-07T20:55:31.427Z,79.30
2018-10-07T20:57:59.700Z,79.70
2018-10-07T21:00:32.014Z,80.30
2018-10-07T21:03:02.069Z,80.70
2018-10-07T21:05:33.865Z,81.20
2018-10-07T21:08:07.983Z,81.10
2018-10-07T21:10:37.171Z,81.70
2018-10-07T21:13:05.465Z,82.00
2018-10-07T21:15:33.764Z,82.00
2018-10-07T21:18:06.078Z,82.40
2018-10-07T21:20:35.532Z,82.80
2018-10-07T21:23:04.057Z,82.80
2018-10-07T21:25:32.483Z,82.70
2018-10-07T21:28:01.016Z,82.50
2018-10-07T21:30:29.514Z,82.40
2018-10-07T21:32:58.547Z,83.00
2018-10-07T21:35:26.908Z,83.30
2018-10-07T21:37:55.444Z,83.40
2018-10-07T21:40:23.883Z,83.60
2018-10-07T21:42:52.301Z,83.90
2018-10-07T21:45:21.363Z,83.90
2018-10-07T21:47:49.811Z,85.10
2018-10-07T21:50:18.237Z,84.70
2018-10-07T21:52:47.506Z,85.20
2018-10-07T21:55:15.879Z,85.60
2018-10-07T21:57:44.154Z,86.00
2018-10-07T22:00:12.585Z,86.20
2018-10-07T22:02:40.855Z,86.30
2018-10-07T22:05:09.155Z,87.00
2018-10-07T22:07:37.383Z,87.50
2018-10-07T22:10:05.683Z,87.80
2018-10-07T22:12:34.136Z,88.00
2018-10-07T22:15:04.776Z,87.80
2018-10-07T22:17:33.049Z,88.30
2018-10-07T22:20:02.438Z,88.50
2018-10-07T22:22:32.392Z,88.70
2018-10-07T22:25:00.700Z,89.90
2018-10-07T22:27:28.919Z,89.30
2018-10-07T22:29:57.230Z,89.60
2018-10-07T22:32:25.833Z,89.80
2018-10-07T22:34:54.078Z,89.80
2018-10-07T22:37:22.333Z,89.90
2018-10-07T22:39:50.608Z,90.00
2018-10-07T22:42:18.911Z,89.70
2018-10-07T22:44:47.481Z,89.70
2018-10-07T22:47:15.869Z,90.00
2018-10-07T22:49:45.126Z,90.00
2018-10-07T22:52:13.395Z,90.00
2018-10-07T22:54:41.911Z,90.00
2018-10-07T22:57:10.145Z,90.20
2018-10-07T22:59:40.070Z,90.30
2018-10-07T23:02:09.049Z,90.50
2018-10-07T23:04:37.333Z,90.60
2018-10-07T23:07:05.832Z,90.60
2018-10-07T23:09:34.068Z,90.80
2018-10-07T23:12:02.283Z,90.70
2018-10-07T23:14:30.494Z,90.70
2018-10-07T23:16:59.658Z,90.80
2018-10-07T23:19:27.890Z,90.80
2018-10-07T23:21:56.109Z,91.00
2018-10-07T23:24:24.366Z,91.10
2018-10-07T23:26:52.606Z,91.10
2018-10-07T23:29:20.874Z,91.10
2018-10-07T23:31:49.066Z,91.20
2018-10-07T23:34:17.318Z,91.30
2018-10-07T23:36:45.514Z,91.40
2018-10-07T23:39:14.159Z,91.50
2018-10-07T23:41:42.628Z,91.70
2018-10-07T23:44:10.871Z,91.80
2018-10-07T23:46:39.393Z,92.00
2018-10-07T23:49:07.879Z,92.10
2018-10-07T23:51:36.202Z,92.00
2018-10-07T23:54:04.629Z,92.30
2018-10-07T23:56:32.858Z,92.50
2018-10-07T23:59:01.136Z,92.40
